x

Nantucket Sound (44020) Weather Station

6:50am - Fri 24th Oct 2014 All times are EDT. -4 hours from GMT.

  • Wind
    29mph, 36mph gusts
  • Sea Temp 56°f
  • Air Temp 53°f
  • Sea Pressure 1001.5mb
  • Nantucket Sound
  • Nantucket Sound

More Historic Weather Station data

Upgrade to MSW Pro to gain access to the past 30 days of data for over 8000 Wavebouys and Weather Stations around the globe.

Join Pro

Comparision Forecast

View Surf forecast
   
Fri 10/24 6:50am  -   -   -  29 36 mph 1001.5mb 56f 53f
5:50am  -   -   -  29 36 mph 1001.2mb 56f 53f
4:50am 4.5ft 4s 4s 29 34 mph 1000.7mb 56f 53f
3:50am 4.5ft 5s 4s 27 34 mph 1000.2mb 57f 54f
2:50am 4.5ft 5s 4s 27 34 mph 999.8mb 58f 54f
1:50am 4.5ft 4s 4s 25 31 mph 999.5mb 59f 55f
12:50am 3.5ft 4s 4s 25 29 mph 999.4mb 60f 56f
Thu 10/23 11:50pm 3.5ft 4s 4s 22 27 mph 999.1mb 60f 57f
10:50pm 2.5ft 4s 4s 22 27 mph 999mb 60f 58f
9:50pm 2.5ft 4s 4s 20 25 mph 999.2mb 59f 58f
8:50pm 2ft 3s 4s 20 25 mph 998.9mb 58f 58f
7:50pm 1.6ft 3s 4s 16 18 mph 998.9mb 58f 58f
6:50pm 2ft 4s 4s 16 18 mph 998.5mb 57f 58f
5:50pm 2ft 5s 4s 11 13 mph 997.8mb 57f 58f
4:50pm 2.5ft 5s 4s 11
mph
997.3mb 57f 58f
3:50pm 2.5ft 5s 4s 11 16 mph 997.4mb 58f 58f
2:50pm 2.5ft 5s 4s 18 20 mph 997.4mb 59f 59f
1:50pm 2.5ft 4s 4s 13
mph
997.8mb 60f 59f
12:50pm 2.5ft 8s 4s 18 20 mph 998.3mb 60f 60f
11:50am 2.5ft 4s 4s 13 16 mph 999.5mb 60f 59f
10:50am 2.5ft 3s 4s 16 18 mph 999.7mb 60f 59f
9:50am 2.5ft 3s 4s 16 20 mph 999.9mb 60f 59f
8:50am 2.5ft 4s 4s 20 22 mph 999.3mb 59f 59f
7:50am 2.5ft 4s 4s 13 16 mph 999.7mb 58f 58f
6:50am 3.5ft 4s 4s 18 22 mph 999.2mb 57f 58f
5:50am 3ft 5s 4s 16 20 mph 999.5mb 57f 58f
4:50am 3ft 4s 4s 13 20 mph 999.1mb 57f 59f
3:50am 2.5ft 5s 4s 18 20 mph 1000.2mb 57f 59f
2:50am  -   -   -  18 20 mph 1000.7mb 59f 58f
1:50am 3.5ft 4s 4s 20 25 mph 1002.3mb 60f 58f
12:50am 4.5ft 5s 4s 20 25 mph 1003.1mb 60f 58f
Wed 10/22 11:50pm 4.5ft 5s 4s 20 27 mph 1003.5mb 61f 59f
10:50pm 4.5ft 5s 4s 22 31 mph 1003.7mb 60f 59f
9:50pm 5ft 5s 5s 27 34 mph 1004.1mb 60f 59f
8:50pm 5ft 5s 4s 31 38 mph 1004mb 60f 58f
7:50pm 4.5ft 5s 4s 31 38 mph 1003.9mb 59f 58f
6:50pm 3ft 4s 4s 29 36 mph 1004.4mb 58f 58f
5:50pm 2.5ft 4s 4s 20 25 mph 1006mb 58f 57f
4:50pm 3ft 4s 4s 20 22 mph 1006.3mb 58f 56f
3:50pm 3.5ft 4s 4s 18 22 mph 1009mb 58f 56f
2:50pm 4.5ft 4s 4s 22 29 mph 1008.7mb 60f 56f
1:50pm 4ft 4s 4s 29 34 mph 1009mb 60f 57f
12:50pm 3ft 4s 4s 25 31 mph 1009.7mb 61f 58f
11:50am 3ft 3s 4s 22 29 mph 1010.4mb 61f 58f
10:50am 3ft 4s 4s 22 27 mph 1011.1mb 61f 58f
9:50am 3ft 4s 4s 22 25 mph 1011.8mb 61f 58f
8:50am 2.5ft 4s 4s 22 25 mph 1012.4mb 61f 58f
7:50am 2.5ft 4s 4s 22 27 mph 1011.7mb 61f 59f
6:50am 2ft 4s 4s 20 25 mph 1011.9mb 61f 59f
5:50am 2ft 3s 3s 16 18 mph 1012.5mb 60f 58f
4:50am 1.6ft 3s 3s 18 20 mph 1012.5mb 60f 58f
3:50am 1.3ft 6s 4s 16 20 mph 1012.2mb 60f 57f
2:50am 1.3ft 6s 4s 11
mph
1012.3mb 61f 58f
1:50am 1.3ft 6s 4s 9 11 mph 1012.8mb 61f 58f
12:50am 1.6ft 4s 4s 9 11 mph 1013.1mb 61f 58f
Tue 10/21 11:50pm 2ft 5s 3s 13 16 mph 1013.4mb 61f 58f
10:50pm 2ft 3s 3s 16 20 mph 1013.4mb 61f 59f
9:50pm 1.6ft 5s 4s 16 18 mph 1012.8mb 61f 59f
8:50pm 1.3ft 4s 4s 11 16 mph 1012.3mb 61f 60f
7:50pm 1.6ft 3s 4s 11 13 mph 1012mb 61f 60f
6:50pm 1.6ft 4s 4s 16 18 mph 1012.2mb 61f 60f
5:50pm 1.6ft 3s 4s 16 20 mph 1012.2mb 61f 60f
4:50pm 1.6ft 3s 3s 13 18 mph 1012.1mb 61f 59f
3:50pm 1.6ft 3s 3s 16 20 mph 1012mb 61f 60f
2:50pm 2ft 3s 3s 18 20 mph 1012.2mb 61f 60f
1:50pm 2.5ft 4s 3s 18 20 mph 1012.4mb 61f 59f
12:50pm 2.5ft 3s 3s 22 27 mph 1012.5mb 61f 59f
11:50am 3ft 4s 3s 22 27 mph 1013.6mb 61f 59f
10:50am 3ft 3s 3s 27 31 mph 1013.6mb 61f 59f
9:50am 2.5ft 4s 3s 22 29 mph 1014.3mb 61f 59f
8:50am 2ft 4s 3s 18 22 mph 1014.7mb 61f 59f
7:50am 1.3ft 3s 3s 20 25 mph 1014.5mb 61f 59f
6:50am 1.3ft 3s 3s 13 16 mph 1014.9mb 61f 59f
5:50am 1ft 3s 3s 18 20 mph 1014.9mb 61f 59f
4:50am 0.7ft  -  3s 13 16 mph 1015.1mb 61f 60f
3:50am 1ft 3s 3s 11
mph
1015.4mb 61f 60f
2:50am 1ft 3s 3s 9 11 mph 1016.2mb 61f 61f
1:50am 1.3ft 3s 3s 13 16 mph 1016.4mb 61f 61f
12:50am 1.3ft 3s 3s 16 20 mph 1016.6mb 61f 60f
Mon 10/20 11:50pm 1.6ft 4s 3s 16 20 mph 1016.4mb 61f 60f
10:50pm 2ft 4s 3s 18 22 mph 1016.8mb 61f 59f
9:50pm 1.6ft 3s 3s 18 25 mph 1016.8mb 61f 58f
8:50pm 1.6ft 3s 3s 16 20 mph 1016.7mb 61f 57f
7:50pm 2ft 3s 3s 20 25 mph 1016.2mb 61f 57f
6:50pm 2.5ft 3s 3s 20 25 mph 1016mb 61f 56f
5:50pm 2.5ft 4s 3s 22 27 mph 1015.7mb 61f 55f
4:50pm 2.5ft 4s 3s 22 27 mph 1015.7mb 61f 55f
3:50pm 2.5ft 4s 3s 22 27 mph 1016mb 61f 54f
2:50pm 2ft 4s 3s 22 27 mph 1016mb 61f 53f
1:50pm 1.6ft 3s 3s 18 22 mph 1016.3mb 61f 52f
12:50pm 1.3ft 3s 3s 13 18 mph 1017.2mb 61f 50f